CCA983 ZBAA-KLAX
Flight info
| Callsign | CCA983 |
|---|---|
| Flight time | N/A |
| Altitude | 31100 |
| Route | MUGLO2G MUGLO W34 VAPGU W100 MUDOT DCT UNSEK A326 DONVO/K0907S1010 G597 AGAVO/N0490F330 Y644 EGOBA Y697 LANAT Y51 SAMON Y142 GTC Y512 ADNAP OTR7 EMRON DCT 42N160E/N0482F350 43N170E 44N180E 45N170W 45N160W 43N150W/N0483F370 41N140W 39N130W DCT CEPAS DCT PIRAT DCT BURGL IRNMN2 |
| Aircraft | B77W/H-SDE1E2E3FGHIJ2J3J4J5M1RWXY/LB1D1 |
Departure
| Time | N/A |
|---|---|
| Airport | Beijing Capital International Airport (ZBAA) |
Arrival
| Time | 2026-04-26 23:23 |
|---|---|
| Airport | Los Angeles International Airport (KLAX) |
| Time | Latitude | Longitude | Altitude | Speed | Heading |
|---|---|---|---|---|---|
| 2026-04-26 17:34 | 43.91252 | 178.57623 | 33039 ft | 586 kts | 81° |
| 2026-04-26 17:34 | 43.92006 | 178.68837 | 33031 ft | 586 kts | 82° |
| 2026-04-26 17:35 | 43.92751 | 178.80093 | 33007 ft | 585 kts | 82° |
| 2026-04-26 17:35 | 43.93484 | 178.91322 | 33012 ft | 585 kts | 82° |
| 2026-04-26 17:36 | 43.94205 | 179.02547 | 33009 ft | 586 kts | 82° |
| 2026-04-26 17:36 | 43.94912 | 179.13711 | 33009 ft | 587 kts | 83° |
| 2026-04-26 17:37 | 43.95610 | 179.24928 | 33007 ft | 586 kts | 83° |
| 2026-04-26 17:37 | 43.96298 | 179.36148 | 33026 ft | 585 kts | 83° |
| 2026-04-26 17:38 | 43.97306 | 179.52960 | 33011 ft | 584 kts | 83° |
| 2026-04-26 17:38 | 43.97966 | 179.64171 | 32992 ft | 584 kts | 83° |
| 2026-04-26 17:39 | 43.98613 | 179.75360 | 32983 ft | 584 kts | 84° |
| 2026-04-26 17:39 | 43.99251 | 179.86592 | 32980 ft | 584 kts | 84° |
| 2026-04-26 17:40 | 43.99773 | 179.95927 | 32978 ft | 583 kts | 84° |
| 2026-04-26 17:40 | 44.00938 | -179.91151 | 32978 ft | 580 kts | 75° |
| 2026-04-26 17:41 | 44.02655 | -179.80200 | 32972 ft | 580 kts | 75° |
| 2026-04-26 17:41 | 44.04302 | -179.69350 | 32972 ft | 579 kts | 76° |
| 2026-04-26 17:42 | 44.05913 | -179.58417 | 32971 ft | 580 kts | 76° |
| 2026-04-26 17:42 | 44.07494 | -179.47466 | 32972 ft | 580 kts | 77° |
| 2026-04-26 17:43 | 44.09050 | -179.36516 | 32965 ft | 579 kts | 77° |
| 2026-04-26 17:43 | 44.10591 | -179.25540 | 32955 ft | 580 kts | 77° |
| 2026-04-26 17:44 | 44.12122 | -179.14523 | 32967 ft | 580 kts | 78° |
| 2026-04-26 17:44 | 44.13633 | -179.03551 | 32959 ft | 580 kts | 78° |
| 2026-04-26 17:45 | 44.15132 | -178.92578 | 32949 ft | 580 kts | 78° |
| 2026-04-26 17:45 | 44.16611 | -178.81654 | 32943 ft | 579 kts | 78° |
| 2026-04-26 17:46 | 44.18087 | -178.70680 | 32935 ft | 578 kts | 78° |
| 2026-04-26 17:46 | 44.19549 | -178.59712 | 32941 ft | 579 kts | 78° |
| 2026-04-26 17:47 | 44.20767 | -178.50511 | 32948 ft | 578 kts | 78° |
| 2026-04-26 17:47 | 44.22449 | -178.37706 | 32932 ft | 578 kts | 79° |
| 2026-04-26 17:48 | 44.23885 | -178.26682 | 32930 ft | 578 kts | 79° |
| 2026-04-26 17:48 | 44.25298 | -178.15747 | 32926 ft | 577 kts | 79° |
| 2026-04-26 17:49 | 44.26706 | -178.04768 | 32926 ft | 577 kts | 79° |
| 2026-04-26 17:49 | 44.28110 | -177.93723 | 32929 ft | 577 kts | 79° |
| 2026-04-26 17:50 | 44.29495 | -177.82748 | 32922 ft | 577 kts | 79° |
| 2026-04-26 17:50 | 44.30870 | -177.71756 | 32923 ft | 578 kts | 79° |
| 2026-04-26 17:51 | 44.32236 | -177.60757 | 32916 ft | 577 kts | 80° |
| 2026-04-26 17:51 | 44.33591 | -177.49747 | 32928 ft | 578 kts | 80° |
| 2026-04-26 17:52 | 44.34937 | -177.38722 | 32915 ft | 577 kts | 80° |
| 2026-04-26 17:52 | 44.36273 | -177.27689 | 32906 ft | 577 kts | 81° |
| 2026-04-26 17:53 | 44.37592 | -177.16701 | 32898 ft | 577 kts | 81° |
| 2026-04-26 17:54 | 44.39560 | -177.00136 | 32902 ft | 577 kts | 81° |
| 2026-04-26 17:54 | 44.40849 | -176.89168 | 32894 ft | 577 kts | 81° |
| 2026-04-26 17:55 | 44.42133 | -176.78146 | 32889 ft | 577 kts | 81° |
| 2026-04-26 17:55 | 44.43412 | -176.67075 | 32900 ft | 577 kts | 81° |
| 2026-04-26 17:56 | 44.44673 | -176.56058 | 32894 ft | 576 kts | 82° |
| 2026-04-26 17:57 | 44.47165 | -176.34000 | 32892 ft | 576 kts | 82° |
| 2026-04-26 17:57 | 44.48395 | -176.22966 | 32873 ft | 575 kts | 83° |
| 2026-04-26 17:58 | 44.50819 | -176.00915 | 32893 ft | 575 kts | 83° |
| 2026-04-26 17:59 | 44.52604 | -175.84418 | 32893 ft | 574 kts | 83° |
| 2026-04-26 17:59 | 44.53789 | -175.73326 | 32899 ft | 575 kts | 83° |
| 2026-04-26 18:00 | 44.54958 | -175.62289 | 32893 ft | 575 kts | 83° |
| 2026-04-26 18:00 | 44.56124 | -175.51172 | 32889 ft | 578 kts | 83° |
| 2026-04-26 18:01 | 44.57275 | -175.40097 | 32887 ft | 577 kts | 83° |
| 2026-04-26 18:01 | 44.58413 | -175.29042 | 32878 ft | 577 kts | 84° |
| 2026-04-26 18:02 | 44.59357 | -175.19783 | 32873 ft | 577 kts | 84° |
| 2026-04-26 18:02 | 44.60661 | -175.06859 | 32883 ft | 577 kts | 85° |
| 2026-04-26 18:03 | 44.61776 | -174.95694 | 32885 ft | 576 kts | 85° |
| 2026-04-26 18:03 | 44.62872 | -174.84611 | 32865 ft | 579 kts | 85° |
| 2026-04-26 18:04 | 44.63960 | -174.73492 | 32885 ft | 578 kts | 85° |
| 2026-04-26 18:05 | 44.65576 | -174.56764 | 32880 ft | 577 kts | 85° |
| 2026-04-26 18:05 | 44.66635 | -174.45650 | 32888 ft | 578 kts | 85° |
| 2026-04-26 18:06 | 44.67690 | -174.34473 | 32875 ft | 577 kts | 86° |
| 2026-04-26 18:06 | 44.68726 | -174.23369 | 32863 ft | 577 kts | 86° |
| 2026-04-26 18:07 | 44.69758 | -174.12186 | 32878 ft | 578 kts | 86° |
| 2026-04-26 18:07 | 44.70774 | -174.01059 | 32871 ft | 576 kts | 86° |
| 2026-04-26 18:08 | 44.71784 | -173.89871 | 32873 ft | 578 kts | 86° |
| 2026-04-26 18:08 | 44.72776 | -173.78764 | 32866 ft | 575 kts | 86° |
| 2026-04-26 18:09 | 44.73756 | -173.67664 | 32868 ft | 576 kts | 86° |
| 2026-04-26 18:09 | 44.74733 | -173.56471 | 32870 ft | 575 kts | 86° |
| 2026-04-26 18:10 | 44.75693 | -173.45354 | 32870 ft | 574 kts | 86° |
| 2026-04-26 18:10 | 44.76640 | -173.34251 | 32869 ft | 575 kts | 87° |
| 2026-04-26 18:11 | 44.77578 | -173.23125 | 32856 ft | 574 kts | 87° |
| 2026-04-26 18:11 | 44.78499 | -173.12058 | 32861 ft | 574 kts | 87° |
| 2026-04-26 18:12 | 44.79417 | -173.00903 | 32865 ft | 574 kts | 87° |
| 2026-04-26 18:12 | 44.80326 | -172.89725 | 32867 ft | 574 kts | 87° |
| 2026-04-26 18:13 | 44.81218 | -172.78618 | 32869 ft | 574 kts | 87° |
| 2026-04-26 18:13 | 44.82101 | -172.67490 | 32871 ft | 574 kts | 87° |
| 2026-04-26 18:14 | 44.82970 | -172.56389 | 32868 ft | 574 kts | 88° |
| 2026-04-26 18:14 | 44.83834 | -172.45219 | 32859 ft | 575 kts | 88° |
| 2026-04-26 18:15 | 44.84683 | -172.34094 | 32848 ft | 575 kts | 89° |
| 2026-04-26 18:15 | 44.85525 | -172.22925 | 32840 ft | 573 kts | 89° |
| 2026-04-26 18:16 | 44.86351 | -172.11804 | 32835 ft | 573 kts | 89° |
| 2026-04-26 18:16 | 44.87572 | -171.95100 | 32841 ft | 573 kts | 89° |
| 2026-04-26 18:17 | 44.88372 | -171.83962 | 32848 ft | 574 kts | 89° |
| 2026-04-26 18:17 | 44.89161 | -171.72835 | 32850 ft | 574 kts | 90° |
| 2026-04-26 18:18 | 44.89945 | -171.61610 | 32857 ft | 575 kts | 90° |
| 2026-04-26 18:18 | 44.90713 | -171.50465 | 32855 ft | 575 kts | 90° |
| 2026-04-26 18:19 | 44.91469 | -171.39331 | 32852 ft | 573 kts | 90° |
| 2026-04-26 18:19 | 44.92214 | -171.28201 | 32850 ft | 572 kts | 91° |
| 2026-04-26 18:20 | 44.92951 | -171.17023 | 32839 ft | 570 kts | 91° |
| 2026-04-26 18:20 | 44.93550 | -171.07796 | 32842 ft | 573 kts | 91° |
| 2026-04-26 18:21 | 44.94383 | -170.94781 | 32838 ft | 573 kts | 91° |
| 2026-04-26 18:21 | 44.95084 | -170.83630 | 32851 ft | 574 kts | 91° |
| 2026-04-26 18:22 | 44.95775 | -170.72502 | 32847 ft | 571 kts | 92° |
| 2026-04-26 18:22 | 44.96457 | -170.61293 | 32857 ft | 574 kts | 92° |
| 2026-04-26 18:23 | 44.97126 | -170.50148 | 32860 ft | 573 kts | 92° |
| 2026-04-26 18:23 | 44.97789 | -170.38902 | 32865 ft | 573 kts | 92° |
| 2026-04-26 18:24 | 44.98435 | -170.27769 | 32861 ft | 573 kts | 92° |
| 2026-04-26 18:24 | 44.99073 | -170.16586 | 32859 ft | 574 kts | 92° |
| 2026-04-26 18:25 | 44.99699 | -170.05400 | 32859 ft | 574 kts | 92° |
| 2026-04-26 18:25 | 45.00242 | -169.94170 | 32864 ft | 573 kts | 94° |
| 2026-04-26 18:26 | 45.00724 | -169.82980 | 32864 ft | 574 kts | 94° |
| 2026-04-26 18:26 | 45.01195 | -169.71741 | 32867 ft | 575 kts | 94° |
| 2026-04-26 18:27 | 45.01654 | -169.60535 | 32875 ft | 574 kts | 94° |
| 2026-04-26 18:27 | 45.02100 | -169.49327 | 32876 ft | 575 kts | 94° |
| 2026-04-26 18:28 | 45.02536 | -169.38123 | 32880 ft | 575 kts | 94° |
| 2026-04-26 18:28 | 45.02963 | -169.26833 | 32871 ft | 574 kts | 95° |
| 2026-04-26 18:29 | 45.03376 | -169.15628 | 32870 ft | 575 kts | 95° |
| 2026-04-26 18:29 | 45.03780 | -169.04370 | 32877 ft | 575 kts | 95° |
| 2026-04-26 18:30 | 45.04172 | -168.93106 | 32884 ft | 575 kts | 95° |
| 2026-04-26 18:30 | 45.04552 | -168.81889 | 32884 ft | 575 kts | 95° |
| 2026-04-26 18:31 | 45.04921 | -168.70654 | 32883 ft | 575 kts | 95° |
| 2026-04-26 18:31 | 45.05280 | -168.59412 | 32879 ft | 576 kts | 95° |
| 2026-04-26 18:32 | 45.05628 | -168.48145 | 32879 ft | 576 kts | 95° |
| 2026-04-26 18:32 | 45.05965 | -168.36887 | 32883 ft | 576 kts | 95° |
| 2026-04-26 18:33 | 45.06292 | -168.25584 | 32870 ft | 577 kts | 96° |
| 2026-04-26 18:33 | 45.06607 | -168.14308 | 32878 ft | 578 kts | 96° |
| 2026-04-26 18:34 | 45.06910 | -168.03091 | 32879 ft | 576 kts | 96° |
| 2026-04-26 18:34 | 45.07205 | -167.91716 | 32884 ft | 577 kts | 96° |
| 2026-04-26 18:35 | 45.07487 | -167.80418 | 32887 ft | 576 kts | 96° |
| 2026-04-26 18:35 | 45.07757 | -167.69218 | 32885 ft | 575 kts | 96° |
| 2026-04-26 18:36 | 45.08016 | -167.57910 | 32891 ft | 578 kts | 96° |
| 2026-04-26 18:36 | 45.08266 | -167.46565 | 32893 ft | 578 kts | 97° |
| 2026-04-26 18:37 | 45.08503 | -167.35298 | 32901 ft | 578 kts | 97° |
| 2026-04-26 18:37 | 45.08732 | -167.23962 | 32890 ft | 576 kts | 98° |
| 2026-04-26 18:38 | 45.08946 | -167.12724 | 32891 ft | 575 kts | 98° |
| 2026-04-26 18:38 | 45.09149 | -167.01360 | 33211 ft | 580 kts | 98° |
| 2026-04-26 18:39 | 45.09249 | -166.95682 | 33689 ft | 576 kts | 98° |
| 2026-04-26 18:39 | 45.09345 | -166.90117 | 34223 ft | 572 kts | 98° |
| 2026-04-26 18:39 | 45.09438 | -166.84509 | 34707 ft | 570 kts | 98° |
| 2026-04-26 18:39 | 45.09525 | -166.78893 | 34890 ft | 574 kts | 97° |
| 2026-04-26 18:40 | 45.09693 | -166.67667 | 34923 ft | 576 kts | 98° |
| 2026-04-26 18:40 | 45.09853 | -166.56367 | 34921 ft | 575 kts | 98° |
| 2026-04-26 18:41 | 45.10001 | -166.45073 | 34926 ft | 577 kts | 98° |
| 2026-04-26 18:41 | 45.10070 | -166.39452 | 34735 ft | 579 kts | 98° |
| 2026-04-26 18:41 | 45.10139 | -166.33798 | 34829 ft | 575 kts | 98° |
| 2026-04-26 18:42 | 45.10265 | -166.22479 | 34895 ft | 577 kts | 99° |
| 2026-04-26 18:42 | 45.10381 | -166.11145 | 34894 ft | 578 kts | 98° |
| 2026-04-26 18:43 | 45.10485 | -165.99789 | 34904 ft | 580 kts | 99° |
| 2026-04-26 18:43 | 45.10579 | -165.88510 | 34901 ft | 575 kts | 99° |
| 2026-04-26 18:44 | 45.10660 | -165.77188 | 34894 ft | 579 kts | 99° |
| 2026-04-26 18:44 | 45.10731 | -165.65845 | 34906 ft | 576 kts | 99° |
| 2026-04-26 18:45 | 45.10791 | -165.54533 | 34917 ft | 575 kts | 99° |
| 2026-04-26 18:45 | 45.10838 | -165.43245 | 34912 ft | 579 kts | 99° |
| 2026-04-26 18:46 | 45.10875 | -165.31905 | 34906 ft | 579 kts | 100° |
| 2026-04-26 18:46 | 45.10902 | -165.20560 | 34904 ft | 579 kts | 100° |
| 2026-04-26 18:47 | 45.10915 | -165.09225 | 34897 ft | 580 kts | 100° |
| 2026-04-26 18:47 | 45.10918 | -164.97798 | 34892 ft | 582 kts | 100° |
| 2026-04-26 18:48 | 45.10912 | -164.86415 | 34906 ft | 582 kts | 100° |
| 2026-04-26 18:48 | 45.10892 | -164.75038 | 34917 ft | 583 kts | 101° |
| 2026-04-26 18:49 | 45.10863 | -164.63635 | 34916 ft | 580 kts | 100° |
| 2026-04-26 18:49 | 45.10818 | -164.52173 | 34919 ft | 587 kts | 100° |
| 2026-04-26 18:50 | 45.10764 | -164.40630 | 34919 ft | 587 kts | 101° |
| 2026-04-26 18:50 | 45.10705 | -164.29244 | 34910 ft | 579 kts | 101° |
| 2026-04-26 18:51 | 45.10625 | -164.17848 | 34899 ft | 583 kts | 101° |
| 2026-04-26 18:51 | 45.10537 | -164.06401 | 34905 ft | 584 kts | 102° |
| 2026-04-26 18:52 | 45.10439 | -163.94966 | 34924 ft | 586 kts | 101° |
| 2026-04-26 18:52 | 45.10325 | -163.83409 | 34915 ft | 587 kts | 101° |
| 2026-04-26 18:53 | 45.10205 | -163.71994 | 34927 ft | 587 kts | 101° |
| 2026-04-26 18:53 | 45.10071 | -163.60496 | 34927 ft | 585 kts | 101° |
| 2026-04-26 18:54 | 45.09928 | -163.49112 | 34922 ft | 584 kts | 101° |
| 2026-04-26 18:54 | 45.09769 | -163.37575 | 34926 ft | 583 kts | 101° |
| 2026-04-26 18:55 | 45.09602 | -163.26190 | 34911 ft | 582 kts | 102° |
| 2026-04-26 18:55 | 45.09421 | -163.14745 | 34917 ft | 587 kts | 102° |
| 2026-04-26 18:56 | 45.09231 | -163.03233 | 34914 ft | 585 kts | 102° |
| 2026-04-26 18:56 | 45.09027 | -162.91768 | 34919 ft | 585 kts | 102° |
| 2026-04-26 18:57 | 45.08850 | -162.82196 | 34913 ft | 585 kts | 102° |
| 2026-04-26 18:57 | 45.08587 | -162.68851 | 34914 ft | 588 kts | 102° |
| 2026-04-26 18:58 | 45.08348 | -162.57303 | 34929 ft | 590 kts | 102° |
| 2026-04-26 18:58 | 45.08100 | -162.45815 | 34934 ft | 586 kts | 102° |
| 2026-04-26 18:59 | 45.07842 | -162.34349 | 34929 ft | 584 kts | 102° |
| 2026-04-26 18:59 | 45.07571 | -162.22939 | 34913 ft | 582 kts | 102° |
| 2026-04-26 19:00 | 45.07291 | -162.11575 | 34906 ft | 581 kts | 102° |
| 2026-04-26 19:00 | 45.06996 | -162.00143 | 35055 ft | 583 kts | 102° |
| 2026-04-26 19:01 | 45.06843 | -161.94400 | 34921 ft | 582 kts | 103° |
| 2026-04-26 19:01 | 45.06694 | -161.88759 | 34907 ft | 579 kts | 102° |
| 2026-04-26 19:01 | 45.06377 | -161.77399 | 34926 ft | 580 kts | 102° |
| 2026-04-26 19:02 | 45.06049 | -161.65991 | 34921 ft | 585 kts | 102° |
| 2026-04-26 19:02 | 45.05768 | -161.56480 | 34938 ft | 582 kts | 102° |
| 2026-04-26 19:03 | 45.05365 | -161.43260 | 34938 ft | 582 kts | 101° |
| 2026-04-26 19:03 | 45.05004 | -161.31851 | 34927 ft | 577 kts | 103° |
| 2026-04-26 19:04 | 45.04634 | -161.20537 | 34916 ft | 577 kts | 102° |
| 2026-04-26 19:04 | 45.04252 | -161.09235 | 34933 ft | 581 kts | 102° |
| 2026-04-26 19:05 | 45.03658 | -160.92209 | 34932 ft | 580 kts | 102° |
| 2026-04-26 19:06 | 45.03251 | -160.80940 | 34935 ft | 581 kts | 102° |
| 2026-04-26 19:06 | 45.02830 | -160.69604 | 34943 ft | 581 kts | 102° |
| 2026-04-26 19:07 | 45.02401 | -160.58311 | 34961 ft | 576 kts | 102° |
| 2026-04-26 19:07 | 45.01957 | -160.46999 | 34947 ft | 578 kts | 101° |
| 2026-04-26 19:08 | 45.01510 | -160.35805 | 34976 ft | 574 kts | 101° |
| 2026-04-26 19:08 | 45.01048 | -160.24582 | 34951 ft | 573 kts | 102° |
| 2026-04-26 19:09 | 45.00574 | -160.13324 | 34966 ft | 572 kts | 102° |
| 2026-04-26 19:09 | 44.99976 | -160.02151 | 34985 ft | 565 kts | 108° |
| 2026-04-26 19:10 | 44.98530 | -159.91328 | 34996 ft | 564 kts | 110° |
| 2026-04-26 19:10 | 44.96963 | -159.80553 | 34994 ft | 561 kts | 110° |
| 2026-04-26 19:11 | 44.95364 | -159.69846 | 35006 ft | 559 kts | 110° |
| 2026-04-26 19:11 | 44.93744 | -159.59184 | 35006 ft | 560 kts | 110° |
| 2026-04-26 19:12 | 44.92098 | -159.48482 | 35012 ft | 557 kts | 110° |
| 2026-04-26 19:12 | 44.90446 | -159.37843 | 35024 ft | 557 kts | 110° |
| 2026-04-26 19:13 | 44.88784 | -159.27232 | 35038 ft | 556 kts | 111° |
| 2026-04-26 19:13 | 44.87118 | -159.16684 | 35032 ft | 557 kts | 111° |
| 2026-04-26 19:14 | 44.85428 | -159.06039 | 35045 ft | 554 kts | 111° |
| 2026-04-26 19:14 | 44.83750 | -158.95550 | 35040 ft | 554 kts | 110° |
| 2026-04-26 19:15 | 44.82044 | -158.84961 | 35059 ft | 555 kts | 110° |
| 2026-04-26 19:15 | 44.80336 | -158.74426 | 35067 ft | 555 kts | 110° |
| 2026-04-26 19:16 | 44.78611 | -158.63855 | 35061 ft | 556 kts | 110° |
| 2026-04-26 19:16 | 44.76885 | -158.53330 | 35072 ft | 555 kts | 110° |
| 2026-04-26 19:17 | 44.75141 | -158.42767 | 35071 ft | 554 kts | 110° |
| 2026-04-26 19:17 | 44.73386 | -158.32208 | 35077 ft | 554 kts | 110° |
| 2026-04-26 19:18 | 44.71633 | -158.21721 | 35073 ft | 553 kts | 110° |
| 2026-04-26 19:18 | 44.69873 | -158.11258 | 35093 ft | 555 kts | 110° |
| 2026-04-26 19:19 | 44.68090 | -158.00722 | 35080 ft | 552 kts | 110° |
| 2026-04-26 19:19 | 44.66314 | -157.90289 | 35091 ft | 554 kts | 110° |
| 2026-04-26 19:20 | 44.64516 | -157.79800 | 35101 ft | 555 kts | 110° |
| 2026-04-26 19:20 | 44.62719 | -157.69362 | 35110 ft | 554 kts | 110° |
| 2026-04-26 19:21 | 44.60899 | -157.58862 | 35111 ft | 555 kts | 109° |
| 2026-04-26 19:21 | 44.59082 | -157.48436 | 35118 ft | 553 kts | 109° |
| 2026-04-26 19:22 | 44.57249 | -157.37982 | 35123 ft | 553 kts | 109° |
| 2026-04-26 19:22 | 44.55413 | -157.27571 | 35121 ft | 550 kts | 110° |
| 2026-04-26 19:23 | 44.53577 | -157.17224 | 35130 ft | 552 kts | 110° |
| 2026-04-26 19:23 | 44.51717 | -157.06796 | 35134 ft | 552 kts | 110° |
| 2026-04-26 19:24 | 44.49855 | -156.96419 | 35136 ft | 551 kts | 110° |
| 2026-04-26 19:24 | 44.47045 | -156.80867 | 35154 ft | 550 kts | 109° |
| 2026-04-26 19:25 | 44.45476 | -156.72246 | 35147 ft | 552 kts | 109° |
| 2026-04-26 19:25 | 44.43265 | -156.60156 | 35160 ft | 553 kts | 109° |
| 2026-04-26 19:26 | 44.41357 | -156.49789 | 35168 ft | 553 kts | 109° |
| 2026-04-26 19:26 | 44.39445 | -156.39453 | 35169 ft | 551 kts | 109° |
| 2026-04-26 19:27 | 44.37521 | -156.29117 | 35166 ft | 552 kts | 110° |
| 2026-04-26 19:27 | 44.35593 | -156.18811 | 35176 ft | 552 kts | 109° |
| 2026-04-26 19:28 | 44.33648 | -156.08464 | 35177 ft | 549 kts | 109° |
| 2026-04-26 19:28 | 44.31704 | -155.98189 | 35178 ft | 549 kts | 109° |
| 2026-04-26 19:29 | 44.29748 | -155.87906 | 35192 ft | 551 kts | 109° |
| 2026-04-26 19:29 | 44.27783 | -155.77629 | 35189 ft | 550 kts | 109° |
| 2026-04-26 19:30 | 44.25819 | -155.67409 | 35187 ft | 550 kts | 109° |
| 2026-04-26 19:30 | 44.24155 | -155.58797 | 35192 ft | 551 kts | 109° |
| 2026-04-26 19:31 | 44.21840 | -155.46874 | 35198 ft | 552 kts | 109° |
| 2026-04-26 19:31 | 44.19835 | -155.36604 | 35206 ft | 550 kts | 109° |
| 2026-04-26 19:32 | 44.17820 | -155.26337 | 35205 ft | 548 kts | 109° |
| 2026-04-26 19:32 | 44.15815 | -155.16180 | 35206 ft | 549 kts | 109° |
| 2026-04-26 19:33 | 44.13783 | -155.05937 | 35212 ft | 550 kts | 109° |
| 2026-04-26 19:33 | 44.11748 | -154.95731 | 35219 ft | 548 kts | 109° |
| 2026-04-26 19:34 | 44.09711 | -154.85568 | 35219 ft | 548 kts | 108° |
| 2026-04-26 19:34 | 44.07658 | -154.75380 | 35230 ft | 550 kts | 108° |
| 2026-04-26 19:35 | 44.05592 | -154.65176 | 35223 ft | 550 kts | 109° |
| 2026-04-26 19:35 | 44.03522 | -154.55005 | 35234 ft | 549 kts | 108° |
| 2026-04-26 19:36 | 44.01785 | -154.46510 | 35234 ft | 550 kts | 108° |
| 2026-04-26 19:36 | 43.99348 | -154.34647 | 35242 ft | 549 kts | 109° |
| 2026-04-26 19:37 | 43.97263 | -154.24558 | 35221 ft | 549 kts | 109° |
| 2026-04-26 19:37 | 43.95159 | -154.14424 | 35217 ft | 549 kts | 109° |
| 2026-04-26 19:38 | 43.93039 | -154.04260 | 35230 ft | 550 kts | 108° |
| 2026-04-26 19:38 | 43.90908 | -153.94101 | 35243 ft | 550 kts | 108° |
| 2026-04-26 19:39 | 43.88778 | -153.83993 | 35247 ft | 549 kts | 108° |
| 2026-04-26 19:39 | 43.86644 | -153.73914 | 35249 ft | 550 kts | 108° |
| 2026-04-26 19:40 | 43.84491 | -153.63794 | 35252 ft | 548 kts | 108° |
| 2026-04-26 19:40 | 43.82325 | -153.53668 | 35254 ft | 548 kts | 108° |
| 2026-04-26 19:41 | 43.80163 | -153.43607 | 35257 ft | 548 kts | 108° |
| 2026-04-26 19:41 | 43.78352 | -153.35213 | 35261 ft | 548 kts | 107° |
| 2026-04-26 19:42 | 43.75819 | -153.23535 | 35252 ft | 548 kts | 108° |
| 2026-04-26 19:42 | 43.73634 | -153.13507 | 35254 ft | 547 kts | 108° |
| 2026-04-26 19:43 | 43.71436 | -153.03473 | 35254 ft | 547 kts | 108° |
| 2026-04-26 19:43 | 43.69236 | -152.93472 | 35244 ft | 545 kts | 108° |
| 2026-04-26 19:44 | 43.67024 | -152.83470 | 35254 ft | 547 kts | 108° |
| 2026-04-26 19:44 | 43.64801 | -152.73459 | 35261 ft | 548 kts | 107° |
| 2026-04-26 19:45 | 43.62572 | -152.63467 | 35262 ft | 547 kts | 107° |
| 2026-04-26 19:45 | 43.60320 | -152.53426 | 35269 ft | 547 kts | 107° |
| 2026-04-26 19:46 | 43.58069 | -152.43431 | 35272 ft | 547 kts | 107° |
| 2026-04-26 19:46 | 43.55824 | -152.33507 | 35276 ft | 548 kts | 108° |
| 2026-04-26 19:47 | 43.53935 | -152.25195 | 35275 ft | 548 kts | 108° |
| 2026-04-26 19:47 | 43.51287 | -152.13592 | 35276 ft | 547 kts | 107° |
| 2026-04-26 19:48 | 43.49006 | -152.03650 | 35279 ft | 547 kts | 107° |
| 2026-04-26 19:48 | 43.46704 | -151.93655 | 35283 ft | 547 kts | 107° |
| 2026-04-26 19:49 | 43.44408 | -151.83739 | 35283 ft | 546 kts | 107° |
| 2026-04-26 19:49 | 43.42111 | -151.73857 | 35283 ft | 545 kts | 107° |
| 2026-04-26 19:50 | 43.39803 | -151.63976 | 35285 ft | 545 kts | 107° |
| 2026-04-26 19:50 | 43.37479 | -151.54068 | 35286 ft | 546 kts | 107° |
| 2026-04-26 19:51 | 43.35147 | -151.44173 | 35289 ft | 545 kts | 107° |
| 2026-04-26 19:51 | 43.32829 | -151.34375 | 35289 ft | 544 kts | 108° |
| 2026-04-26 19:52 | 43.30477 | -151.24483 | 35284 ft | 544 kts | 107° |
| 2026-04-26 19:52 | 43.28140 | -151.14691 | 35286 ft | 544 kts | 107° |
| 2026-04-26 19:53 | 43.25783 | -151.04862 | 35289 ft | 545 kts | 107° |
| 2026-04-26 19:53 | 43.23409 | -150.95004 | 35288 ft | 545 kts | 107° |
| 2026-04-26 19:54 | 43.21035 | -150.85190 | 35285 ft | 544 kts | 107° |
| 2026-04-26 19:54 | 43.18655 | -150.75391 | 35288 ft | 544 kts | 107° |
| 2026-04-26 19:55 | 43.16273 | -150.65631 | 35289 ft | 543 kts | 107° |
| 2026-04-26 19:55 | 43.13888 | -150.55894 | 35289 ft | 541 kts | 107° |
| 2026-04-26 19:56 | 43.11498 | -150.46181 | 35291 ft | 541 kts | 106° |
| 2026-04-26 19:56 | 43.09098 | -150.36465 | 35291 ft | 540 kts | 107° |
| 2026-04-26 19:57 | 43.06697 | -150.26788 | 35283 ft | 541 kts | 107° |
| 2026-04-26 19:57 | 43.04278 | -150.17081 | 35285 ft | 540 kts | 107° |
| 2026-04-26 19:58 | 43.01869 | -150.07451 | 35285 ft | 539 kts | 107° |
| 2026-04-26 19:58 | 42.99465 | -149.97816 | 35278 ft | 537 kts | 104° |
| 2026-04-26 19:59 | 42.97897 | -149.87877 | 35286 ft | 535 kts | 98° |
| 2026-04-26 19:59 | 42.96496 | -149.77963 | 35287 ft | 536 kts | 98° |
| 2026-04-26 20:00 | 42.95026 | -149.67978 | 35289 ft | 535 kts | 98° |
| 2026-04-26 20:00 | 42.93538 | -149.58122 | 35289 ft | 535 kts | 98° |
| 2026-04-26 20:01 | 42.92018 | -149.48213 | 35290 ft | 536 kts | 98° |
| 2026-04-26 20:01 | 42.90482 | -149.38321 | 35292 ft | 535 kts | 98° |
| 2026-04-26 20:02 | 42.88924 | -149.28386 | 35278 ft | 535 kts | 99° |
| 2026-04-26 20:02 | 42.87627 | -149.20172 | 35277 ft | 535 kts | 99° |
| 2026-04-26 20:03 | 42.85798 | -149.08672 | 35278 ft | 533 kts | 99° |
| 2026-04-26 20:03 | 42.84223 | -148.98831 | 35277 ft | 535 kts | 99° |
| 2026-04-26 20:04 | 42.82631 | -148.88953 | 35281 ft | 535 kts | 99° |
| 2026-04-26 20:04 | 42.81035 | -148.79105 | 35290 ft | 534 kts | 99° |
| 2026-04-26 20:05 | 42.79435 | -148.69296 | 35290 ft | 534 kts | 99° |
| 2026-04-26 20:05 | 42.77831 | -148.59508 | 35289 ft | 535 kts | 99° |
| 2026-04-26 20:06 | 42.76207 | -148.49669 | 35296 ft | 535 kts | 98° |
| 2026-04-26 20:06 | 42.74576 | -148.39835 | 35296 ft | 535 kts | 98° |
| 2026-04-26 20:07 | 42.72935 | -148.29997 | 35294 ft | 534 kts | 99° |
| 2026-04-26 20:07 | 42.71289 | -148.20189 | 35298 ft | 536 kts | 99° |
| 2026-04-26 20:08 | 42.69636 | -148.10393 | 35299 ft | 533 kts | 99° |
| 2026-04-26 20:08 | 42.67970 | -148.00569 | 35300 ft | 534 kts | 99° |
| 2026-04-26 20:09 | 42.66297 | -147.90768 | 35300 ft | 534 kts | 99° |
| 2026-04-26 20:09 | 42.64620 | -147.80994 | 35305 ft | 535 kts | 99° |
| 2026-04-26 20:10 | 42.62928 | -147.71184 | 35308 ft | 534 kts | 98° |
| 2026-04-26 20:10 | 42.61223 | -147.61354 | 35308 ft | 535 kts | 99° |
| 2026-04-26 20:11 | 42.59519 | -147.51582 | 35313 ft | 535 kts | 98° |
| 2026-04-26 20:12 | 42.56944 | -147.36920 | 35318 ft | 535 kts | 98° |
| 2026-04-26 20:12 | 42.55215 | -147.27138 | 35314 ft | 534 kts | 99° |
| 2026-04-26 20:13 | 42.53478 | -147.17360 | 35316 ft | 535 kts | 98° |
| 2026-04-26 20:13 | 42.51741 | -147.07638 | 35321 ft | 535 kts | 98° |
| 2026-04-26 20:14 | 42.49985 | -146.97864 | 35322 ft | 534 kts | 98° |
| 2026-04-26 20:14 | 42.48233 | -146.88156 | 35325 ft | 535 kts | 98° |
| 2026-04-26 20:15 | 42.46460 | -146.78395 | 35327 ft | 534 kts | 98° |
| 2026-04-26 20:15 | 42.44687 | -146.68675 | 35333 ft | 533 kts | 98° |
| 2026-04-26 20:16 | 42.42909 | -146.58980 | 35334 ft | 534 kts | 98° |
| 2026-04-26 20:16 | 42.41120 | -146.49275 | 35336 ft | 532 kts | 98° |
| 2026-04-26 20:17 | 42.39331 | -146.39621 | 35343 ft | 533 kts | 98° |
| 2026-04-26 20:17 | 42.37525 | -146.29918 | 35338 ft | 535 kts | 98° |
| 2026-04-26 20:18 | 42.35708 | -146.20218 | 35340 ft | 533 kts | 98° |
| 2026-04-26 20:18 | 42.33885 | -146.10525 | 35345 ft | 534 kts | 98° |
| 2026-04-26 20:19 | 42.32062 | -146.00891 | 35347 ft | 533 kts | 98° |
| 2026-04-26 20:19 | 42.30236 | -145.91287 | 35351 ft | 529 kts | 98° |
| 2026-04-26 20:20 | 42.28401 | -145.81676 | 35351 ft | 530 kts | 98° |
| 2026-04-26 20:20 | 42.26551 | -145.72032 | 35356 ft | 531 kts | 98° |
| 2026-04-26 20:21 | 42.24706 | -145.62466 | 35356 ft | 530 kts | 98° |
| 2026-04-26 20:21 | 42.22846 | -145.52873 | 35355 ft | 530 kts | 97° |
| 2026-04-26 20:22 | 42.20981 | -145.43294 | 35357 ft | 528 kts | 97° |
| 2026-04-26 20:22 | 42.19101 | -145.33691 | 35358 ft | 530 kts | 98° |
| 2026-04-26 20:23 | 42.17228 | -145.24167 | 35360 ft | 529 kts | 98° |
| 2026-04-26 20:23 | 42.15339 | -145.14612 | 35363 ft | 527 kts | 97° |
| 2026-04-26 20:24 | 42.13446 | -145.05074 | 35363 ft | 528 kts | 97° |
| 2026-04-26 20:24 | 42.11557 | -144.95605 | 35359 ft | 529 kts | 98° |
| 2026-04-26 20:25 | 42.09645 | -144.86066 | 35356 ft | 528 kts | 97° |
| 2026-04-26 20:25 | 42.07743 | -144.76628 | 35364 ft | 527 kts | 97° |
| 2026-04-26 20:26 | 42.05820 | -144.67116 | 35368 ft | 528 kts | 97° |
| 2026-04-26 20:26 | 42.03901 | -144.57684 | 35363 ft | 525 kts | 97° |
| 2026-04-26 20:27 | 42.01978 | -144.48270 | 35362 ft | 523 kts | 97° |
| 2026-04-26 20:27 | 42.00035 | -144.38798 | 35366 ft | 522 kts | 96° |
| 2026-04-26 20:28 | 41.98100 | -144.29401 | 35369 ft | 525 kts | 97° |
| 2026-04-26 20:28 | 41.96146 | -144.19969 | 35375 ft | 525 kts | 97° |
| 2026-04-26 20:29 | 41.94197 | -144.10603 | 35376 ft | 523 kts | 97° |
| 2026-04-26 20:29 | 41.92231 | -144.01196 | 35377 ft | 521 kts | 97° |
| 2026-04-26 20:30 | 41.90271 | -143.91849 | 35379 ft | 525 kts | 97° |
| 2026-04-26 20:30 | 41.88301 | -143.82510 | 35361 ft | 522 kts | 96° |
| 2026-04-26 20:31 | 41.86325 | -143.73183 | 35354 ft | 520 kts | 96° |
| 2026-04-26 20:31 | 41.84346 | -143.63878 | 35358 ft | 519 kts | 96° |
| 2026-04-26 20:32 | 41.82368 | -143.54611 | 35354 ft | 519 kts | 96° |
| 2026-04-26 20:32 | 41.80377 | -143.45331 | 35361 ft | 523 kts | 96° |
| 2026-04-26 20:33 | 41.78368 | -143.36024 | 35356 ft | 516 kts | 96° |
| 2026-04-26 20:33 | 41.76371 | -143.26782 | 35357 ft | 522 kts | 96° |
| 2026-04-26 20:34 | 41.74359 | -143.17531 | 35359 ft | 520 kts | 96° |
| 2026-04-26 20:34 | 41.72345 | -143.08308 | 35360 ft | 520 kts | 96° |
| 2026-04-26 20:35 | 41.70317 | -142.99072 | 35359 ft | 512 kts | 96° |
| 2026-04-26 20:35 | 41.68317 | -142.89978 | 35360 ft | 516 kts | 96° |
| 2026-04-26 20:36 | 41.66282 | -142.80772 | 35365 ft | 516 kts | 96° |
| 2026-04-26 20:36 | 41.64254 | -142.71639 | 35369 ft | 514 kts | 95° |
| 2026-04-26 20:37 | 41.62214 | -142.62499 | 35373 ft | 514 kts | 95° |
| 2026-04-26 20:37 | 41.60170 | -142.53363 | 35376 ft | 517 kts | 95° |
| 2026-04-26 20:38 | 41.58112 | -142.44211 | 35373 ft | 515 kts | 95° |
| 2026-04-26 20:38 | 41.56069 | -142.35169 | 35373 ft | 515 kts | 95° |
| 2026-04-26 20:39 | 41.53997 | -142.26031 | 35375 ft | 511 kts | 95° |
| 2026-04-26 20:39 | 41.51933 | -142.16963 | 35377 ft | 514 kts | 95° |
| 2026-04-26 20:40 | 41.49865 | -142.07927 | 35372 ft | 509 kts | 95° |
| 2026-04-26 20:40 | 41.47789 | -141.98865 | 35368 ft | 515 kts | 95° |
| 2026-04-26 20:41 | 41.45686 | -141.89745 | 35361 ft | 513 kts | 95° |
| 2026-04-26 20:41 | 41.43599 | -141.80734 | 35364 ft | 510 kts | 95° |
| 2026-04-26 20:42 | 41.41511 | -141.71732 | 35361 ft | 514 kts | 95° |
| 2026-04-26 20:42 | 41.39400 | -141.62697 | 35358 ft | 508 kts | 95° |
| 2026-04-26 20:43 | 41.37295 | -141.53702 | 35363 ft | 512 kts | 95° |
| 2026-04-26 20:43 | 41.35189 | -141.44746 | 35361 ft | 511 kts | 95° |
| 2026-04-26 20:44 | 41.33081 | -141.35825 | 35359 ft | 507 kts | 95° |
| 2026-04-26 20:44 | 41.30952 | -141.26825 | 35361 ft | 510 kts | 96° |
| 2026-04-26 20:45 | 41.28841 | -141.17961 | 35361 ft | 509 kts | 96° |
| 2026-04-26 20:45 | 41.26711 | -141.09042 | 35364 ft | 505 kts | 96° |
| 2026-04-26 20:46 | 41.24575 | -141.00125 | 35369 ft | 510 kts | 96° |
| 2026-04-26 20:46 | 41.22428 | -140.91208 | 35372 ft | 508 kts | 96° |
| 2026-04-26 20:47 | 41.20271 | -140.82285 | 35372 ft | 506 kts | 96° |
| 2026-04-26 20:47 | 41.18132 | -140.73467 | 35367 ft | 505 kts | 97° |
| 2026-04-26 20:48 | 41.15974 | -140.64600 | 35367 ft | 503 kts | 97° |
| 2026-04-26 20:48 | 41.13818 | -140.55774 | 35374 ft | 506 kts | 97° |
| 2026-04-26 20:49 | 41.11646 | -140.46918 | 35372 ft | 505 kts | 98° |
| 2026-04-26 20:49 | 41.09471 | -140.38080 | 35369 ft | 507 kts | 98° |
| 2026-04-26 20:50 | 41.07295 | -140.29280 | 35380 ft | 509 kts | 99° |
| 2026-04-26 20:50 | 41.05091 | -140.20399 | 35378 ft | 507 kts | 99° |
| 2026-04-26 20:51 | 41.02901 | -140.11610 | 35376 ft | 505 kts | 99° |
| 2026-04-26 20:51 | 41.00691 | -140.02760 | 35373 ft | 508 kts | 100° |
| 2026-04-26 20:52 | 40.98795 | -139.93889 | 35377 ft | 498 kts | 92° |
| 2026-04-26 20:52 | 40.97540 | -139.84949 | 35388 ft | 498 kts | 93° |
| 2026-04-26 20:53 | 40.96237 | -139.75995 | 35377 ft | 496 kts | 94° |
| 2026-04-26 20:53 | 40.94916 | -139.67177 | 35359 ft | 498 kts | 94° |
| 2026-04-26 20:53 | 40.94244 | -139.62778 | 35238 ft | 493 kts | 94° |
| 2026-04-26 20:54 | 40.93558 | -139.58299 | 35331 ft | 498 kts | 94° |
| 2026-04-26 20:54 | 40.92173 | -139.49353 | 35347 ft | 498 kts | 95° |
| 2026-04-26 20:55 | 40.90777 | -139.40420 | 35342 ft | 496 kts | 95° |
| 2026-04-26 20:55 | 40.89372 | -139.31493 | 35336 ft | 499 kts | 96° |
| 2026-04-26 20:56 | 40.87965 | -139.22618 | 35328 ft | 497 kts | 96° |
| 2026-04-26 20:56 | 40.86546 | -139.13721 | 35346 ft | 496 kts | 97° |
| 2026-04-26 20:57 | 40.85120 | -139.04822 | 35346 ft | 496 kts | 97° |
| 2026-04-26 20:57 | 40.83686 | -138.95923 | 35337 ft | 497 kts | 97° |
| 2026-04-26 20:58 | 40.82251 | -138.87067 | 35364 ft | 494 kts | 97° |
| 2026-04-26 20:58 | 40.80817 | -138.78267 | 35334 ft | 492 kts | 97° |
| 2026-04-26 20:59 | 40.79373 | -138.69443 | 35334 ft | 492 kts | 97° |
| 2026-04-26 20:59 | 40.77922 | -138.60623 | 35341 ft | 492 kts | 98° |
| 2026-04-26 21:00 | 40.76478 | -138.51889 | 35336 ft | 490 kts | 98° |
| 2026-04-26 21:00 | 40.75017 | -138.43102 | 35335 ft | 491 kts | 98° |
| 2026-04-26 21:01 | 40.73563 | -138.34392 | 35327 ft | 488 kts | 99° |
| 2026-04-26 21:01 | 40.72104 | -138.25705 | 35326 ft | 487 kts | 99° |
| 2026-04-26 21:02 | 40.70639 | -138.17012 | 35328 ft | 488 kts | 99° |
| 2026-04-26 21:02 | 40.69165 | -138.08321 | 35295 ft | 489 kts | 100° |
| 2026-04-26 21:03 | 40.67681 | -137.99606 | 35335 ft | 490 kts | 100° |
| 2026-04-26 21:03 | 40.66193 | -137.90910 | 35326 ft | 487 kts | 100° |
| 2026-04-26 21:04 | 40.64695 | -137.82199 | 35311 ft | 486 kts | 101° |
| 2026-04-26 21:04 | 40.63203 | -137.73567 | 35310 ft | 486 kts | 101° |
| 2026-04-26 21:05 | 40.61702 | -137.64920 | 35320 ft | 486 kts | 101° |
| 2026-04-26 21:05 | 40.60191 | -137.56264 | 35318 ft | 485 kts | 101° |
| 2026-04-26 21:06 | 40.58688 | -137.47684 | 35311 ft | 484 kts | 101° |
| 2026-04-26 21:06 | 40.57184 | -137.39142 | 35308 ft | 482 kts | 101° |
| 2026-04-26 21:07 | 40.55662 | -137.30543 | 35313 ft | 482 kts | 102° |
| 2026-04-26 21:07 | 40.54147 | -137.22015 | 35305 ft | 481 kts | 101° |
| 2026-04-26 21:08 | 40.52624 | -137.13484 | 35296 ft | 480 kts | 102° |
| 2026-04-26 21:08 | 40.51110 | -137.05046 | 35293 ft | 477 kts | 102° |
| 2026-04-26 21:09 | 40.49580 | -136.96555 | 35290 ft | 478 kts | 102° |
| 2026-04-26 21:09 | 40.48045 | -136.88072 | 35284 ft | 478 kts | 102° |
| 2026-04-26 21:10 | 40.46507 | -136.79610 | 35293 ft | 479 kts | 102° |
| 2026-04-26 21:10 | 40.44961 | -136.71146 | 35293 ft | 479 kts | 102° |
| 2026-04-26 21:11 | 40.43407 | -136.62669 | 35294 ft | 478 kts | 102° |
| 2026-04-26 21:11 | 40.41847 | -136.54204 | 35296 ft | 478 kts | 102° |
| 2026-04-26 21:12 | 40.40288 | -136.45779 | 35290 ft | 478 kts | 102° |
| 2026-04-26 21:12 | 40.38723 | -136.37360 | 35290 ft | 477 kts | 102° |
| 2026-04-26 21:13 | 40.37151 | -136.28935 | 35287 ft | 479 kts | 103° |
| 2026-04-26 21:13 | 40.35565 | -136.20479 | 35284 ft | 480 kts | 103° |
| 2026-04-26 21:14 | 40.33971 | -136.12012 | 35279 ft | 478 kts | 103° |
| 2026-04-26 21:14 | 40.32381 | -136.03606 | 35271 ft | 478 kts | 103° |
| 2026-04-26 21:15 | 40.30776 | -135.95152 | 35270 ft | 478 kts | 103° |
| 2026-04-26 21:15 | 40.29172 | -135.86748 | 35263 ft | 478 kts | 103° |
| 2026-04-26 21:16 | 40.27562 | -135.78340 | 35266 ft | 479 kts | 103° |
| 2026-04-26 21:16 | 40.25942 | -135.69922 | 35265 ft | 479 kts | 103° |
| 2026-04-26 21:17 | 40.24314 | -135.61496 | 35259 ft | 478 kts | 103° |
| 2026-04-26 21:17 | 40.22680 | -135.53075 | 35261 ft | 479 kts | 103° |
| 2026-04-26 21:18 | 40.21046 | -135.44688 | 35254 ft | 478 kts | 103° |
| 2026-04-26 21:18 | 40.19403 | -135.36287 | 35247 ft | 479 kts | 103° |
| 2026-04-26 21:19 | 40.17748 | -135.27867 | 35258 ft | 480 kts | 103° |
| 2026-04-26 21:19 | 40.16084 | -135.19431 | 35248 ft | 480 kts | 103° |
| 2026-04-26 21:20 | 40.14423 | -135.11046 | 35247 ft | 480 kts | 103° |
| 2026-04-26 21:20 | 40.12740 | -135.02589 | 35246 ft | 480 kts | 103° |
| 2026-04-26 21:21 | 40.11069 | -134.94220 | 35247 ft | 481 kts | 103° |
| 2026-04-26 21:21 | 40.09381 | -134.85806 | 35239 ft | 481 kts | 103° |
| 2026-04-26 21:22 | 40.07678 | -134.77350 | 35243 ft | 481 kts | 103° |
| 2026-04-26 21:22 | 40.05980 | -134.68956 | 35238 ft | 481 kts | 103° |
| 2026-04-26 21:23 | 40.03418 | -134.56351 | 35232 ft | 479 kts | 103° |
| 2026-04-26 21:23 | 40.01712 | -134.48001 | 35231 ft | 481 kts | 103° |
| 2026-04-26 21:24 | 39.99992 | -134.39612 | 35228 ft | 481 kts | 103° |
| 2026-04-26 21:24 | 39.98260 | -134.31203 | 35227 ft | 482 kts | 104° |
| 2026-04-26 21:25 | 39.96514 | -134.22759 | 35227 ft | 481 kts | 104° |
| 2026-04-26 21:25 | 39.94780 | -134.14404 | 35224 ft | 480 kts | 104° |
| 2026-04-26 21:26 | 39.93038 | -134.06047 | 35222 ft | 480 kts | 104° |
| 2026-04-26 21:26 | 39.91290 | -133.97691 | 35218 ft | 481 kts | 104° |
| 2026-04-26 21:27 | 39.89534 | -133.89331 | 35219 ft | 481 kts | 104° |
| 2026-04-26 21:27 | 39.87760 | -133.80922 | 35217 ft | 480 kts | 104° |
| 2026-04-26 21:28 | 39.85997 | -133.72592 | 35214 ft | 480 kts | 104° |
| 2026-04-26 21:28 | 39.84219 | -133.64229 | 35209 ft | 479 kts | 104° |
| 2026-04-26 21:29 | 39.82442 | -133.55899 | 35210 ft | 479 kts | 104° |
| 2026-04-26 21:29 | 39.80662 | -133.47591 | 35211 ft | 480 kts | 104° |
| 2026-04-26 21:30 | 39.78872 | -133.39262 | 35202 ft | 480 kts | 104° |
| 2026-04-26 21:30 | 39.77076 | -133.30945 | 35207 ft | 481 kts | 104° |
| 2026-04-26 21:31 | 39.75265 | -133.22589 | 35193 ft | 480 kts | 104° |
| 2026-04-26 21:31 | 39.73463 | -133.14299 | 35187 ft | 480 kts | 104° |
| 2026-04-26 21:32 | 39.71650 | -133.05995 | 35184 ft | 480 kts | 104° |
| 2026-04-26 21:32 | 39.69820 | -132.97649 | 35180 ft | 480 kts | 104° |
| 2026-04-26 21:33 | 39.67995 | -132.89354 | 35177 ft | 481 kts | 104° |
| 2026-04-26 21:33 | 39.66157 | -132.81029 | 35172 ft | 481 kts | 104° |
| 2026-04-26 21:34 | 39.64310 | -132.72694 | 35172 ft | 481 kts | 104° |
| 2026-04-26 21:34 | 39.62463 | -132.64392 | 35169 ft | 481 kts | 104° |
| 2026-04-26 21:35 | 39.60609 | -132.56093 | 35168 ft | 481 kts | 104° |
| 2026-04-26 21:35 | 39.58748 | -132.47788 | 35167 ft | 481 kts | 104° |
| 2026-04-26 21:36 | 39.56879 | -132.39479 | 35161 ft | 482 kts | 104° |
| 2026-04-26 21:36 | 39.55000 | -132.31158 | 35166 ft | 484 kts | 105° |
| 2026-04-26 21:37 | 39.53119 | -132.22861 | 35166 ft | 483 kts | 105° |
| 2026-04-26 21:37 | 39.51223 | -132.14528 | 35161 ft | 483 kts | 105° |
| 2026-04-26 21:38 | 39.49336 | -132.06261 | 35160 ft | 483 kts | 104° |
| 2026-04-26 21:38 | 39.47431 | -131.97949 | 35160 ft | 483 kts | 105° |
| 2026-04-26 21:39 | 39.45522 | -131.89648 | 35159 ft | 484 kts | 105° |
| 2026-04-26 21:39 | 39.43595 | -131.81300 | 35154 ft | 485 kts | 104° |
| 2026-04-26 21:40 | 39.41672 | -131.72998 | 35153 ft | 484 kts | 104° |
| 2026-04-26 21:40 | 39.39737 | -131.64679 | 35152 ft | 484 kts | 104° |
| 2026-04-26 21:41 | 39.37795 | -131.56357 | 35150 ft | 484 kts | 104° |
| 2026-04-26 21:41 | 39.35861 | -131.48099 | 35150 ft | 484 kts | 104° |
| 2026-04-26 21:42 | 39.33902 | -131.39764 | 35143 ft | 485 kts | 104° |
| 2026-04-26 21:42 | 39.31943 | -131.31457 | 35149 ft | 486 kts | 105° |
| 2026-04-26 21:43 | 39.29978 | -131.23155 | 35146 ft | 485 kts | 105° |
| 2026-04-26 21:43 | 39.28006 | -131.14854 | 35145 ft | 485 kts | 105° |
| 2026-04-26 21:44 | 39.26039 | -131.06604 | 35141 ft | 485 kts | 105° |
| 2026-04-26 21:44 | 39.24054 | -130.98308 | 35143 ft | 486 kts | 105° |
| 2026-04-26 21:45 | 39.22059 | -130.89998 | 35135 ft | 487 kts | 104° |
| 2026-04-26 21:45 | 39.20055 | -130.81682 | 35130 ft | 487 kts | 104° |
| 2026-04-26 21:46 | 39.18052 | -130.73399 | 35130 ft | 486 kts | 104° |
| 2026-04-26 21:46 | 39.16042 | -130.65114 | 35121 ft | 487 kts | 104° |
| 2026-04-26 21:47 | 39.14009 | -130.56763 | 35119 ft | 488 kts | 104° |
| 2026-04-26 21:47 | 39.11988 | -130.48491 | 35116 ft | 489 kts | 104° |
| 2026-04-26 21:48 | 39.09944 | -130.40155 | 35112 ft | 490 kts | 104° |
| 2026-04-26 21:48 | 39.07887 | -130.31796 | 35112 ft | 490 kts | 105° |
| 2026-04-26 21:49 | 39.05831 | -130.23467 | 35108 ft | 490 kts | 105° |
| 2026-04-26 21:49 | 39.03768 | -130.15140 | 35104 ft | 492 kts | 105° |
| 2026-04-26 21:50 | 39.01693 | -130.06795 | 35103 ft | 492 kts | 105° |
| 2026-04-26 21:50 | 38.99560 | -129.98465 | 35100 ft | 493 kts | 106° |
| 2026-04-26 21:51 | 38.97288 | -129.90143 | 35098 ft | 494 kts | 106° |
| 2026-04-26 21:51 | 38.95011 | -129.81850 | 35097 ft | 495 kts | 106° |
| 2026-04-26 21:52 | 38.92725 | -129.73557 | 35093 ft | 495 kts | 106° |
| 2026-04-26 21:52 | 38.90435 | -129.65279 | 35093 ft | 495 kts | 106° |
| 2026-04-26 21:53 | 38.88124 | -129.56957 | 35084 ft | 495 kts | 106° |
| 2026-04-26 21:53 | 38.85812 | -129.48656 | 35084 ft | 497 kts | 106° |
| 2026-04-26 21:54 | 38.83488 | -129.40340 | 35082 ft | 498 kts | 106° |
| 2026-04-26 21:54 | 38.81155 | -129.32018 | 35083 ft | 499 kts | 107° |
| 2026-04-26 21:55 | 38.78804 | -129.23659 | 35081 ft | 498 kts | 107° |
| 2026-04-26 21:55 | 38.76465 | -129.15370 | 35080 ft | 499 kts | 107° |
| 2026-04-26 21:56 | 38.74096 | -129.07001 | 35080 ft | 501 kts | 107° |
| 2026-04-26 21:56 | 38.71717 | -128.98622 | 35080 ft | 502 kts | 107° |
| 2026-04-26 21:57 | 38.69339 | -128.90276 | 35075 ft | 502 kts | 107° |
| 2026-04-26 21:57 | 38.66952 | -128.81921 | 35074 ft | 503 kts | 107° |
| 2026-04-26 21:58 | 38.64547 | -128.73534 | 35076 ft | 502 kts | 107° |
| 2026-04-26 21:58 | 38.62144 | -128.65176 | 35067 ft | 503 kts | 107° |
| 2026-04-26 21:59 | 38.59734 | -128.56822 | 35070 ft | 504 kts | 107° |
| 2026-04-26 21:59 | 38.57307 | -128.48438 | 35064 ft | 504 kts | 107° |
| 2026-04-26 22:00 | 38.54872 | -128.40047 | 35061 ft | 505 kts | 107° |
| 2026-04-26 22:00 | 38.52434 | -128.31679 | 35055 ft | 506 kts | 107° |
| 2026-04-26 22:01 | 38.49983 | -128.23285 | 35051 ft | 506 kts | 107° |
| 2026-04-26 22:01 | 38.47522 | -128.14890 | 35053 ft | 507 kts | 107° |
| 2026-04-26 22:02 | 38.45053 | -128.06486 | 35056 ft | 507 kts | 107° |
| 2026-04-26 22:02 | 38.42579 | -127.98099 | 35054 ft | 508 kts | 107° |
| 2026-04-26 22:03 | 38.40090 | -127.89683 | 35053 ft | 508 kts | 107° |
| 2026-04-26 22:03 | 38.37598 | -127.81284 | 35051 ft | 510 kts | 107° |
| 2026-04-26 22:04 | 38.35089 | -127.72853 | 35048 ft | 512 kts | 107° |
| 2026-04-26 22:04 | 38.32558 | -127.64377 | 35045 ft | 511 kts | 107° |
| 2026-04-26 22:05 | 38.30043 | -127.55978 | 35046 ft | 513 kts | 107° |
| 2026-04-26 22:05 | 38.27501 | -127.47515 | 35044 ft | 513 kts | 107° |
| 2026-04-26 22:06 | 38.24958 | -127.39075 | 35048 ft | 513 kts | 107° |
| 2026-04-26 22:06 | 38.22403 | -127.30622 | 35042 ft | 515 kts | 108° |
| 2026-04-26 22:07 | 38.19837 | -127.22159 | 35043 ft | 516 kts | 108° |
| 2026-04-26 22:07 | 38.17247 | -127.13642 | 35040 ft | 516 kts | 108° |
| 2026-04-26 22:08 | 38.14663 | -127.05170 | 35038 ft | 517 kts | 108° |
| 2026-04-26 22:08 | 38.12368 | -126.96556 | 35038 ft | 513 kts | 101° |
| 2026-04-26 22:09 | 38.10696 | -126.87770 | 35022 ft | 515 kts | 100° |
| 2026-04-26 22:09 | 38.09020 | -126.78990 | 35028 ft | 515 kts | 101° |
| 2026-04-26 22:10 | 38.07314 | -126.70124 | 35031 ft | 518 kts | 101° |
| 2026-04-26 22:10 | 38.05593 | -126.61253 | 35026 ft | 517 kts | 101° |
| 2026-04-26 22:11 | 38.03876 | -126.52446 | 35031 ft | 520 kts | 101° |
| 2026-04-26 22:11 | 38.02133 | -126.43552 | 35032 ft | 521 kts | 101° |
| 2026-04-26 22:12 | 38.00388 | -126.34691 | 35048 ft | 521 kts | 101° |
| 2026-04-26 22:12 | 37.98629 | -126.25799 | 35022 ft | 522 kts | 102° |
| 2026-04-26 22:13 | 37.96861 | -126.16900 | 35030 ft | 524 kts | 102° |
| 2026-04-26 22:13 | 37.95068 | -126.07916 | 35023 ft | 525 kts | 102° |
| 2026-04-26 22:14 | 37.93280 | -125.98994 | 35021 ft | 525 kts | 102° |
| 2026-04-26 22:14 | 37.91483 | -125.90068 | 35028 ft | 526 kts | 102° |
| 2026-04-26 22:15 | 37.89664 | -125.81071 | 35025 ft | 528 kts | 102° |
| 2026-04-26 22:15 | 37.87853 | -125.72150 | 35023 ft | 527 kts | 102° |
| 2026-04-26 22:16 | 37.86021 | -125.63160 | 35026 ft | 528 kts | 102° |
| 2026-04-26 22:16 | 37.84189 | -125.54211 | 35032 ft | 529 kts | 102° |
| 2026-04-26 22:17 | 37.82343 | -125.45235 | 35022 ft | 530 kts | 103° |
| 2026-04-26 22:17 | 37.80484 | -125.36229 | 35019 ft | 530 kts | 102° |
| 2026-04-26 22:18 | 37.78628 | -125.27276 | 35006 ft | 531 kts | 103° |
| 2026-04-26 22:18 | 37.76751 | -125.18261 | 35020 ft | 532 kts | 103° |
| 2026-04-26 22:19 | 37.74874 | -125.09278 | 35008 ft | 532 kts | 103° |
| 2026-04-26 22:19 | 37.72989 | -125.00298 | 35020 ft | 531 kts | 104° |
| 2026-04-26 22:20 | 37.71091 | -124.91294 | 35011 ft | 533 kts | 104° |
| 2026-04-26 22:20 | 37.69172 | -124.82229 | 35018 ft | 535 kts | 104° |
| 2026-04-26 22:21 | 37.67254 | -124.73202 | 35012 ft | 533 kts | 104° |
| 2026-04-26 22:21 | 37.65347 | -124.64265 | 35008 ft | 533 kts | 104° |
| 2026-04-26 22:22 | 37.63406 | -124.55208 | 35009 ft | 533 kts | 104° |
| 2026-04-26 22:22 | 37.61477 | -124.46240 | 34999 ft | 534 kts | 104° |
| 2026-04-26 22:23 | 37.59522 | -124.37190 | 35023 ft | 535 kts | 104° |
| 2026-04-26 22:23 | 37.57570 | -124.28189 | 35004 ft | 536 kts | 105° |
| 2026-04-26 22:24 | 37.55604 | -124.19160 | 35007 ft | 536 kts | 105° |
| 2026-04-26 22:24 | 37.53639 | -124.10172 | 34998 ft | 534 kts | 105° |
| 2026-04-26 22:25 | 37.51652 | -124.01120 | 35011 ft | 535 kts | 105° |
| 2026-04-26 22:25 | 37.49683 | -123.92183 | 35009 ft | 535 kts | 105° |
| 2026-04-26 22:26 | 37.47687 | -123.83163 | 35015 ft | 536 kts | 105° |
| 2026-04-26 22:26 | 37.45685 | -123.74150 | 35020 ft | 537 kts | 105° |
| 2026-04-26 22:27 | 37.43670 | -123.65113 | 35016 ft | 538 kts | 106° |
| 2026-04-26 22:27 | 37.41658 | -123.56126 | 35017 ft | 538 kts | 106° |
| 2026-04-26 22:28 | 37.39624 | -123.47082 | 35013 ft | 538 kts | 106° |
| 2026-04-26 22:28 | 37.37584 | -123.38041 | 35035 ft | 539 kts | 106° |
| 2026-04-26 22:29 | 37.35548 | -123.29050 | 35011 ft | 538 kts | 107° |
| 2026-04-26 22:29 | 37.33496 | -123.20028 | 35145 ft | 539 kts | 107° |
| 2026-04-26 22:30 | 37.32467 | -123.15519 | 34973 ft | 539 kts | 107° |
| 2026-04-26 22:30 | 37.31442 | -123.11031 | 35096 ft | 538 kts | 107° |
| 2026-04-26 22:30 | 37.30401 | -123.06485 | 34930 ft | 537 kts | 107° |
| 2026-04-26 22:30 | 37.29381 | -123.02039 | 35102 ft | 537 kts | 107° |
| 2026-04-26 22:31 | 37.27311 | -122.93038 | 35026 ft | 537 kts | 107° |
| 2026-04-26 22:31 | 37.24368 | -122.84481 | 35018 ft | 534 kts | 124° |
| 2026-04-26 22:32 | 37.20274 | -122.76749 | 35019 ft | 533 kts | 127° |
| 2026-04-26 22:32 | 37.16110 | -122.69139 | 35016 ft | 532 kts | 127° |
| 2026-04-26 22:33 | 37.09778 | -122.57700 | 35023 ft | 532 kts | 127° |
| 2026-04-26 22:34 | 37.05571 | -122.50153 | 35010 ft | 532 kts | 127° |
| 2026-04-26 22:34 | 37.01310 | -122.42541 | 35015 ft | 533 kts | 127° |
| 2026-04-26 22:35 | 36.97061 | -122.34974 | 34997 ft | 532 kts | 128° |
| 2026-04-26 22:35 | 36.92817 | -122.27438 | 34995 ft | 531 kts | 128° |
| 2026-04-26 22:36 | 36.88582 | -122.19936 | 34989 ft | 531 kts | 128° |
| 2026-04-26 22:36 | 36.84335 | -122.12433 | 34992 ft | 529 kts | 128° |
| 2026-04-26 22:37 | 36.80085 | -122.04942 | 35020 ft | 531 kts | 128° |
| 2026-04-26 22:37 | 36.75828 | -121.97454 | 34993 ft | 531 kts | 128° |
| 2026-04-26 22:37 | 36.73700 | -121.93719 | 35130 ft | 531 kts | 128° |
| 2026-04-26 22:38 | 36.71577 | -121.89995 | 34980 ft | 529 kts | 128° |
| 2026-04-26 22:38 | 36.67297 | -121.82501 | 35011 ft | 530 kts | 128° |
| 2026-04-26 22:39 | 36.63048 | -121.75078 | 35012 ft | 530 kts | 128° |
| 2026-04-26 22:39 | 36.58776 | -121.67631 | 35013 ft | 530 kts | 128° |
| 2026-04-26 22:40 | 36.54517 | -121.60223 | 35005 ft | 528 kts | 128° |
| 2026-04-26 22:40 | 36.50223 | -121.52770 | 35008 ft | 529 kts | 128° |
| 2026-04-26 22:41 | 36.45965 | -121.45396 | 35002 ft | 528 kts | 128° |
| 2026-04-26 22:41 | 36.41689 | -121.38005 | 34991 ft | 529 kts | 128° |
| 2026-04-26 22:42 | 36.37379 | -121.30573 | 34978 ft | 527 kts | 129° |
| 2026-04-26 22:42 | 36.33109 | -121.23227 | 34961 ft | 527 kts | 129° |
| 2026-04-26 22:43 | 36.28848 | -121.15911 | 34963 ft | 528 kts | 129° |
| 2026-04-26 22:43 | 36.24543 | -121.08536 | 34963 ft | 528 kts | 129° |
| 2026-04-26 22:44 | 36.20257 | -121.01208 | 34960 ft | 527 kts | 129° |
| 2026-04-26 22:44 | 36.15967 | -120.93890 | 34954 ft | 527 kts | 129° |
| 2026-04-26 22:45 | 36.11652 | -120.86545 | 34958 ft | 527 kts | 129° |
| 2026-04-26 22:45 | 36.07350 | -120.79237 | 34951 ft | 527 kts | 129° |
| 2026-04-26 22:46 | 36.03041 | -120.71933 | 34951 ft | 527 kts | 129° |
| 2026-04-26 22:46 | 35.98723 | -120.64630 | 34951 ft | 529 kts | 129° |
| 2026-04-26 22:47 | 35.94413 | -120.57355 | 34947 ft | 528 kts | 129° |
| 2026-04-26 22:47 | 35.90092 | -120.50076 | 34937 ft | 526 kts | 129° |
| 2026-04-26 22:48 | 35.85769 | -120.42811 | 34958 ft | 527 kts | 129° |
| 2026-04-26 22:48 | 35.81439 | -120.35548 | 34951 ft | 527 kts | 129° |
| 2026-04-26 22:49 | 35.77116 | -120.28312 | 34949 ft | 528 kts | 130° |
| 2026-04-26 22:49 | 35.72753 | -120.21025 | 34964 ft | 528 kts | 130° |
| 2026-04-26 22:50 | 35.68357 | -120.13926 | 34964 ft | 511 kts | 136° |
| 2026-04-26 22:50 | 35.65857 | -120.10935 | 34817 ft | 503 kts | 144° |
| 2026-04-26 22:50 | 35.63061 | -120.08420 | 34635 ft | 498 kts | 151° |
| 2026-04-26 22:50 | 35.60169 | -120.06136 | 34263 ft | 494 kts | 152° |
| 2026-04-26 22:51 | 35.57249 | -120.03874 | 33829 ft | 492 kts | 152° |
| 2026-04-26 22:51 | 35.54358 | -120.01656 | 33389 ft | 492 kts | 152° |
| 2026-04-26 22:51 | 35.51472 | -119.99453 | 32956 ft | 494 kts | 152° |
| 2026-04-26 22:51 | 35.48522 | -119.97212 | 32509 ft | 495 kts | 152° |
| 2026-04-26 22:52 | 35.45596 | -119.94996 | 32068 ft | 495 kts | 152° |
| 2026-04-26 22:52 | 35.42678 | -119.92793 | 31628 ft | 496 kts | 152° |
| 2026-04-26 22:52 | 35.39746 | -119.90585 | 31186 ft | 497 kts | 152° |
| 2026-04-26 22:52 | 35.36780 | -119.88354 | 30737 ft | 498 kts | 152° |
| 2026-04-26 22:53 | 35.33843 | -119.86150 | 30253 ft | 495 kts | 152° |
| 2026-04-26 22:53 | 35.30931 | -119.83965 | 29747 ft | 490 kts | 152° |
| 2026-04-26 22:53 | 35.28087 | -119.81678 | 29235 ft | 487 kts | 146° |
| 2026-04-26 22:53 | 35.25417 | -119.79208 | 28735 ft | 483 kts | 145° |
| 2026-04-26 22:54 | 35.22769 | -119.76725 | 28228 ft | 479 kts | 145° |
| 2026-04-26 22:54 | 35.20132 | -119.74253 | 27739 ft | 475 kts | 145° |
| 2026-04-26 22:54 | 35.17525 | -119.71814 | 27335 ft | 470 kts | 145° |
| 2026-04-26 22:54 | 35.14938 | -119.69396 | 26945 ft | 470 kts | 145° |
| 2026-04-26 22:55 | 35.12354 | -119.66986 | 26636 ft | 467 kts | 145° |
| 2026-04-26 22:55 | 35.09762 | -119.64569 | 26541 ft | 464 kts | 145° |
| 2026-04-26 22:55 | 35.07216 | -119.62199 | 26585 ft | 469 kts | 145° |
| 2026-04-26 22:55 | 35.04607 | -119.59773 | 26588 ft | 468 kts | 145° |
| 2026-04-26 22:56 | 35.02025 | -119.57372 | 26586 ft | 467 kts | 145° |
| 2026-04-26 22:56 | 34.99439 | -119.54971 | 26587 ft | 467 kts | 145° |
| 2026-04-26 22:56 | 34.96860 | -119.52579 | 26542 ft | 468 kts | 145° |
| 2026-04-26 22:56 | 34.94284 | -119.50191 | 26386 ft | 465 kts | 145° |
| 2026-04-26 22:57 | 34.91741 | -119.47833 | 25976 ft | 458 kts | 145° |
| 2026-04-26 22:57 | 34.89169 | -119.45492 | 25462 ft | 452 kts | 146° |
| 2026-04-26 22:57 | 34.86668 | -119.43256 | 25022 ft | 446 kts | 146° |
| 2026-04-26 22:57 | 34.84171 | -119.41026 | 24578 ft | 440 kts | 146° |
| 2026-04-26 22:58 | 34.81743 | -119.38859 | 24143 ft | 434 kts | 146° |
| 2026-04-26 22:58 | 34.79311 | -119.36687 | 23702 ft | 428 kts | 146° |
| 2026-04-26 22:58 | 34.76924 | -119.34558 | 23265 ft | 423 kts | 146° |
| 2026-04-26 22:58 | 34.74570 | -119.32459 | 22835 ft | 418 kts | 147° |
| 2026-04-26 22:59 | 34.72242 | -119.30417 | 22385 ft | 413 kts | 147° |
| 2026-04-26 22:59 | 34.69916 | -119.28387 | 21933 ft | 409 kts | 147° |
| 2026-04-26 22:59 | 34.67601 | -119.26369 | 21485 ft | 404 kts | 147° |
| 2026-04-26 22:59 | 34.65348 | -119.24403 | 21048 ft | 400 kts | 147° |
| 2026-04-26 23:00 | 34.63106 | -119.22463 | 20629 ft | 396 kts | 148° |
| 2026-04-26 23:00 | 34.60848 | -119.20517 | 20219 ft | 391 kts | 147° |
| 2026-04-26 23:00 | 34.58645 | -119.18620 | 19812 ft | 387 kts | 148° |
| 2026-04-26 23:00 | 34.56475 | -119.16753 | 19414 ft | 385 kts | 148° |
| 2026-04-26 23:01 | 34.54290 | -119.14839 | 18996 ft | 385 kts | 147° |
| 2026-04-26 23:01 | 34.52142 | -119.12933 | 18565 ft | 383 kts | 147° |
| 2026-04-26 23:01 | 34.49996 | -119.11030 | 18191 ft | 380 kts | 147° |
| 2026-04-26 23:01 | 34.47862 | -119.09140 | 17785 ft | 378 kts | 147° |
| 2026-04-26 23:02 | 34.45757 | -119.07276 | 17379 ft | 376 kts | 147° |
| 2026-04-26 23:02 | 34.43659 | -119.05424 | 16978 ft | 373 kts | 147° |
| 2026-04-26 23:02 | 34.41550 | -119.03592 | 16627 ft | 371 kts | 147° |
| 2026-04-26 23:02 | 34.39453 | -119.01778 | 16211 ft | 369 kts | 147° |
| 2026-04-26 23:03 | 34.37385 | -118.99989 | 15834 ft | 367 kts | 147° |
| 2026-04-26 23:03 | 34.35301 | -118.98186 | 15477 ft | 366 kts | 147° |
| 2026-04-26 23:03 | 34.33261 | -118.96410 | 15101 ft | 365 kts | 146° |
| 2026-04-26 23:03 | 34.31214 | -118.94549 | 14711 ft | 363 kts | 145° |
| 2026-04-26 23:04 | 34.29214 | -118.92725 | 14334 ft | 361 kts | 145° |
| 2026-04-26 23:04 | 34.27224 | -118.90913 | 13963 ft | 358 kts | 145° |
| 2026-04-26 23:04 | 34.25240 | -118.89111 | 13602 ft | 357 kts | 145° |
| 2026-04-26 23:04 | 34.23273 | -118.87305 | 13212 ft | 353 kts | 145° |
| 2026-04-26 23:05 | 34.21315 | -118.85501 | 12863 ft | 349 kts | 145° |
| 2026-04-26 23:05 | 34.19391 | -118.83730 | 12473 ft | 346 kts | 145° |
| 2026-04-26 23:05 | 34.17501 | -118.81995 | 12134 ft | 343 kts | 145° |
| 2026-04-26 23:05 | 34.15610 | -118.80231 | 11753 ft | 340 kts | 142° |
| 2026-04-26 23:06 | 34.13874 | -118.78331 | 11418 ft | 336 kts | 139° |
| 2026-04-26 23:06 | 34.12178 | -118.76427 | 11126 ft | 331 kts | 139° |
| 2026-04-26 23:06 | 34.10495 | -118.74564 | 10806 ft | 327 kts | 140° |
| 2026-04-26 23:06 | 34.08799 | -118.72711 | 10411 ft | 326 kts | 140° |
| 2026-04-26 23:07 | 34.07148 | -118.70914 | 10163 ft | 320 kts | 140° |
| 2026-04-26 23:07 | 34.05515 | -118.69136 | 10008 ft | 307 kts | 141° |
| 2026-04-26 23:07 | 34.04013 | -118.67385 | 9840 ft | 301 kts | 130° |
| 2026-04-26 23:07 | 34.03070 | -118.65143 | 9418 ft | 306 kts | 105° |
| 2026-04-26 23:08 | 34.02648 | -118.62608 | 9011 ft | 307 kts | 98° |
| 2026-04-26 23:08 | 34.02374 | -118.60065 | 8607 ft | 307 kts | 96° |
| 2026-04-26 23:08 | 34.02132 | -118.57551 | 8254 ft | 303 kts | 96° |
| 2026-04-26 23:08 | 34.01897 | -118.55057 | 7893 ft | 299 kts | 96° |
| 2026-04-26 23:09 | 34.01665 | -118.52588 | 7614 ft | 292 kts | 96° |
| 2026-04-26 23:09 | 34.01440 | -118.50199 | 7442 ft | 283 kts | 95° |
| 2026-04-26 23:09 | 34.01221 | -118.47867 | 7204 ft | 277 kts | 95° |
| 2026-04-26 23:09 | 34.01122 | -118.45573 | 6945 ft | 271 kts | 83° |
| 2026-04-26 23:10 | 34.01412 | -118.43396 | 6724 ft | 264 kts | 77° |
| 2026-04-26 23:10 | 34.01778 | -118.41260 | 6507 ft | 258 kts | 76° |
| 2026-04-26 23:10 | 34.02146 | -118.39143 | 6292 ft | 252 kts | 76° |
| 2026-04-26 23:10 | 34.02495 | -118.37122 | 6086 ft | 247 kts | 76° |
| 2026-04-26 23:11 | 34.02835 | -118.35103 | 5966 ft | 239 kts | 79° |
| 2026-04-26 23:11 | 34.03030 | -118.33109 | 5931 ft | 243 kts | 83° |
| 2026-04-26 23:11 | 34.03213 | -118.31065 | 5587 ft | 248 kts | 83° |
| 2026-04-26 23:11 | 34.03418 | -118.28999 | 5248 ft | 249 kts | 82° |
| 2026-04-26 23:12 | 34.03644 | -118.26952 | 4972 ft | 247 kts | 82° |
| 2026-04-26 23:12 | 34.03872 | -118.24902 | 4700 ft | 245 kts | 82° |
| 2026-04-26 23:12 | 34.04094 | -118.22900 | 4432 ft | 243 kts | 82° |
| 2026-04-26 23:12 | 34.04315 | -118.20892 | 4162 ft | 241 kts | 82° |
| 2026-04-26 23:13 | 34.04533 | -118.18903 | 3891 ft | 239 kts | 82° |
| 2026-04-26 23:13 | 34.04752 | -118.16905 | 3628 ft | 237 kts | 82° |
| 2026-04-26 23:13 | 34.04961 | -118.14995 | 3562 ft | 225 kts | 82° |
| 2026-04-26 23:13 | 34.05157 | -118.13194 | 3558 ft | 209 kts | 82° |
| 2026-04-26 23:14 | 34.05343 | -118.11494 | 3555 ft | 203 kts | 82° |
| 2026-04-26 23:14 | 34.05401 | -118.09797 | 3545 ft | 202 kts | 104° |
| 2026-04-26 23:14 | 34.04724 | -118.08373 | 3545 ft | 197 kts | 143° |
| 2026-04-26 23:14 | 34.03525 | -118.07595 | 3556 ft | 194 kts | 161° |
| 2026-04-26 23:15 | 34.02275 | -118.06976 | 3553 ft | 193 kts | 161° |
| 2026-04-26 23:15 | 34.01034 | -118.06367 | 3561 ft | 196 kts | 161° |
| 2026-04-26 23:15 | 33.99728 | -118.05732 | 3560 ft | 202 kts | 161° |
| 2026-04-26 23:15 | 33.98426 | -118.05109 | 3559 ft | 203 kts | 165° |
| 2026-04-26 23:16 | 33.97051 | -118.05047 | 3552 ft | 197 kts | 200° |
| 2026-04-26 23:16 | 33.95922 | -118.05875 | 3545 ft | 190 kts | 233° |
| 2026-04-26 23:16 | 33.95473 | -118.07327 | 3543 ft | 189 kts | 270° |
| 2026-04-26 23:16 | 33.95827 | -118.08863 | 3560 ft | 191 kts | 291° |
| 2026-04-26 23:17 | 33.96351 | -118.10289 | 3547 ft | 180 kts | 295° |
| 2026-04-26 23:17 | 33.96655 | -118.11645 | 3538 ft | 161 kts | 261° |
| 2026-04-26 23:17 | 33.96389 | -118.12965 | 3413 ft | 163 kts | 256° |
| 2026-04-26 23:17 | 33.96149 | -118.14258 | 3298 ft | 154 kts | 262° |
| 2026-04-26 23:18 | 33.96016 | -118.15559 | 3464 ft | 157 kts | 264° |
| 2026-04-26 23:18 | 33.95902 | -118.16867 | 3535 ft | 162 kts | 263° |
| 2026-04-26 23:18 | 33.95769 | -118.18214 | 3317 ft | 159 kts | 263° |
| 2026-04-26 23:18 | 33.95641 | -118.19521 | 3114 ft | 155 kts | 263° |
| 2026-04-26 23:19 | 33.95514 | -118.20805 | 2919 ft | 154 kts | 263° |
| 2026-04-26 23:19 | 33.95387 | -118.22078 | 2733 ft | 152 kts | 263° |
| 2026-04-26 23:19 | 33.95265 | -118.23293 | 2529 ft | 141 kts | 262° |
| 2026-04-26 23:19 | 33.95148 | -118.24453 | 2359 ft | 141 kts | 262° |
| 2026-04-26 23:20 | 33.95030 | -118.25614 | 2170 ft | 142 kts | 262° |
| 2026-04-26 23:20 | 33.94910 | -118.26794 | 1992 ft | 140 kts | 262° |
| 2026-04-26 23:20 | 33.94791 | -118.27960 | 1796 ft | 141 kts | 262° |
| 2026-04-26 23:20 | 33.94670 | -118.29152 | 1614 ft | 141 kts | 262° |
| 2026-04-26 23:21 | 33.94551 | -118.30320 | 1426 ft | 141 kts | 262° |
| 2026-04-26 23:21 | 33.94432 | -118.31474 | 1244 ft | 139 kts | 262° |
| 2026-04-26 23:21 | 33.94313 | -118.32641 | 1056 ft | 140 kts | 261° |
| 2026-04-26 23:21 | 33.94196 | -118.33794 | 869 ft | 141 kts | 262° |
| 2026-04-26 23:22 | 33.94075 | -118.34975 | 683 ft | 139 kts | 262° |
| 2026-04-26 23:22 | 33.93959 | -118.36140 | 473 ft | 139 kts | 261° |
| 2026-04-26 23:22 | 33.93835 | -118.37289 | 300 ft | 137 kts | 262° |
| 2026-04-26 23:22 | 33.93716 | -118.38425 | 144 ft | 136 kts | 261° |
| 2026-04-26 23:23 | 33.93607 | -118.39533 | 120 ft | 125 kts | 259° |
| 2026-04-26 23:23 | 33.93519 | -118.40361 | 133 ft | 72 kts | 263° |
| 2026-04-26 23:23 | 33.93480 | -118.40743 | 138 ft | 24 kts | 264° |
| 2026-04-26 23:23 | 33.93474 | -118.40922 | 139 ft | 11 kts | 281° |
| 2026-04-26 23:24 | 33.93489 | -118.41008 | 140 ft | 10 kts | 283° |
| 2026-04-26 23:24 | 33.93506 | -118.41078 | 140 ft | 0 kts | 290° |
| 2026-04-26 23:24 | 33.93509 | -118.41087 | 140 ft | 3 kts | 290° |
| 2026-04-26 23:25 | 33.93523 | -118.41135 | 139 ft | 6 kts | 290° |
| 2026-04-26 23:25 | 33.93537 | -118.41210 | 139 ft | 11 kts | 277° |
| 2026-04-26 23:25 | 33.93535 | -118.41327 | 138 ft | 15 kts | 264° |
| 2026-04-26 23:25 | 33.93521 | -118.41468 | 136 ft | 17 kts | 263° |
| 2026-04-26 23:26 | 33.93506 | -118.41609 | 135 ft | 16 kts | 263° |
| 2026-04-26 23:26 | 33.93491 | -118.41743 | 134 ft | 15 kts | 262° |
| 2026-04-26 23:26 | 33.93489 | -118.41756 | 134 ft | 0 kts | 263° |
| 2026-04-26 23:26 | 33.93488 | -118.41772 | 134 ft | 2 kts | 265° |
| 2026-04-26 23:27 | 33.93487 | -118.41793 | 134 ft | 2 kts | 271° |
| 2026-04-26 23:27 | 33.93489 | -118.41818 | 134 ft | 2 kts | 278° |
| 2026-04-26 23:27 | 33.93494 | -118.41846 | 133 ft | 5 kts | 283° |
| 2026-04-26 23:27 | 33.93515 | -118.41893 | 133 ft | 6 kts | 321° |
| 2026-04-26 23:28 | 33.93556 | -118.41911 | 133 ft | 6 kts | 347° |
| 2026-04-26 23:28 | 33.93607 | -118.41925 | 133 ft | 8 kts | 348° |
| 2026-04-26 23:28 | 33.93665 | -118.41936 | 134 ft | 8 kts | 352° |
| 2026-04-26 23:28 | 33.93727 | -118.41933 | 133 ft | 9 kts | 30° |
| 2026-04-26 23:29 | 33.93767 | -118.41866 | 134 ft | 10 kts | 78° |
| 2026-04-26 23:29 | 33.93778 | -118.41779 | 135 ft | 10 kts | 83° |
| 2026-04-26 23:29 | 33.93788 | -118.41685 | 136 ft | 11 kts | 84° |
| 2026-04-26 23:29 | 33.93797 | -118.41579 | 136 ft | 13 kts | 84° |
| 2026-04-26 23:30 | 33.93808 | -118.41459 | 136 ft | 15 kts | 81° |
| 2026-04-26 23:30 | 33.93824 | -118.41333 | 138 ft | 15 kts | 83° |
| 2026-04-26 23:30 | 33.93838 | -118.41221 | 139 ft | 12 kts | 72° |
| 2026-04-26 23:30 | 33.93888 | -118.41170 | 138 ft | 8 kts | 6° |
| 2026-04-26 23:31 | 33.93957 | -118.41178 | 136 ft | 10 kts | 353° |
| 2026-04-26 23:31 | 33.94034 | -118.41188 | 135 ft | 10 kts | 354° |
| 2026-04-26 23:31 | 33.94099 | -118.41199 | 136 ft | 9 kts | 353° |
| 2026-04-26 23:31 | 33.94144 | -118.41205 | 135 ft | 2 kts | 2° |
| 2026-04-26 23:32 | 33.94155 | -118.41195 | 135 ft | 2 kts | 51° |
| 2026-04-26 23:32 | 33.94161 | -118.41184 | 135 ft | 0 kts | 62° |
| 2026-04-26 23:32 | 33.94162 | -118.41182 | 135 ft | 0 kts | 63° |
| 2026-04-26 23:32 | 33.94167 | -118.41164 | 136 ft | 3 kts | 72° |
| 2026-04-26 23:33 | 33.94168 | -118.41159 | 136 ft | 0 kts | 73° |
| 2026-04-26 23:33 | 33.94170 | -118.41149 | 137 ft | 0 kts | 79° |
| 2026-04-26 23:33 | 33.94175 | -118.41120 | 138 ft | 3 kts | 83° |
| 2026-04-26 23:33 | 33.94176 | -118.41106 | 138 ft | 0 kts | 83° |
| 2026-04-26 23:34 | 33.94177 | -118.41103 | 138 ft | 0 kts | 82° |